Time;durP1;ratioP1;P1;durP2;ratioP2;P2;SDS_P1;SDS_P2;PMS_P1;PMS_P2;Temp;Humidity;BMP_temperature;BMP_pressure;BME280_temperature;BME280_humidity;BME280_pressure;Samples;Min_cycle;Max_cycle;Signal;HPM_P1;HPM_P2
2023/03/13 00:00:55;;;;;;;35.55;34.25;;;13.00;93.10;;;;;;5026726;28;20046;-73
2023/03/13 00:03:21;;;;;;;34.63;33.33;;;13.00;93.10;;;;;;5027494;28;20397;-73
2023/03/13 00:05:47;;;;;;;35.90;34.60;;;13.00;93.10;;;;;;5027573;28;20067;-73
2023/03/13 00:08:13;;;;;;;33.08;31.88;;;12.90;93.10;;;;;;5027573;28;20524;-73
2023/03/13 00:10:40;;;;;;;32.20;31.00;;;13.00;93.10;;;;;;5027618;28;20029;-73
2023/03/13 00:13:07;;;;;;;34.78;33.47;;;12.90;93.10;;;;;;5027477;28;20037;-73
2023/03/13 00:15:33;;;;;;;46.67;44.97;;;12.90;93.10;;;;;;5026068;28;20037;-73
2023/03/13 00:17:59;;;;;;;;;;;12.90;93.10;;;;;;5027802;28;20083;-73
2023/03/13 00:20:24;;;;;;;88.88;85.57;;;12.90;93.00;;;;;;5026083;28;19909;-73
2023/03/13 00:22:50;;;;;;;86.63;83.43;;;12.80;93.10;;;;;;5026022;28;20034;-73
2023/03/13 00:25:16;;;;;;;83.57;80.53;;;12.80;93.00;;;;;;5027379;28;20038;-73
2023/03/13 00:27:42;;;;;;;76.53;73.72;;;12.70;93.00;;;;;;5027319;28;20418;-73
2023/03/13 00:30:08;;;;;;;79.15;76.25;;;12.70;93.00;;;;;;5026231;28;20510;-73
2023/03/13 00:32:42;;;;;;;76.47;73.68;;;12.70;93.00;;;;;;5027672;28;20026;-73
2023/03/13 00:35:08;;;;;;;75.68;72.93;;;12.60;93.00;;;;;;5027317;28;20540;-73
2023/03/13 00:37:34;;;;;;;81.30;78.30;;;12.70;93.10;;;;;;5027201;28;20033;-73
2023/03/13 00:39:59;;;;;;;79.90;77.00;;;12.70;93.10;;;;;;5027287;28;20080;-73
2023/03/13 00:42:25;;;;;;;82.88;79.85;;;12.60;93.20;;;;;;5027251;28;20398;-73
2023/03/13 00:44:51;;;;;;;78.70;75.80;;;12.70;93.10;;;;;;5027253;28;20120;-73
2023/03/13 00:47:16;;;;;;;71.65;69.05;;;12.70;93.00;;;;;;5027176;28;20057;-73
2023/03/13 00:49:42;;;;;;;71.13;68.53;;;12.60;93.00;;;;;;5027221;28;20049;-73
2023/03/13 00:52:08;;;;;;;73.05;70.35;;;12.70;93.10;;;;;;5027135;28;20080;-73
2023/03/13 00:54:33;;;;;;;74.85;72.15;;;12.70;93.10;;;;;;5027158;28;20029;-73
2023/03/13 00:56:59;;;;;;;63.60;61.30;;;12.70;93.10;;;;;;5026942;28;20104;-73
2023/03/13 00:59:25;;;;;;;59.15;56.95;;;12.70;93.10;;;;;;5027137;28;20041;-73
2023/03/13 01:01:51;;;;;;;59.55;57.35;;;12.70;93.10;;;;;;5025672;28;20050;-73
2023/03/13 01:04:16;;;;;;;53.97;51.97;;;12.70;93.10;;;;;;5026998;28;20037;-73
2023/03/13 01:06:42;;;;;;;50.72;48.83;;;12.70;93.10;;;;;;5026878;28;20400;-73
2023/03/13 01:09:11;;;;;;;44.70;43.05;;;12.70;93.10;;;;;;5027034;28;20033;-73
2023/03/13 01:11:39;;;;;;;46.60;44.90;;;12.70;93.10;;;;;;5026981;28;20041;-73
2023/03/13 01:14:07;;;;;;;45.83;44.13;;;12.80;93.10;;;;;;5030875;28;20111;-73
2023/03/13 01:16:35;;;;;;;41.60;40.10;;;12.80;93.10;;;;;;5030644;28;20327;-74
2023/03/13 01:19:07;;;;;;;44.05;42.45;;;12.80;93.10;;;;;;5030634;28;20057;-73
2023/03/13 01:21:33;;;;;;;39.83;38.33;;;12.80;93.10;;;;;;5030635;28;20487;-73
2023/03/13 01:23:59;;;;;;;45.75;44.05;;;12.80;93.20;;;;;;5030577;28;20120;-73
2023/03/13 01:26:26;;;;;;;44.83;43.15;;;12.80;93.20;;;;;;5030506;28;20530;-73
2023/03/13 01:28:51;;;;;;;39.22;37.72;;;12.80;93.10;;;;;;5029179;28;20037;-73
2023/03/13 01:31:22;;;;;;;43.38;41.78;;;12.80;93.20;;;;;;5029339;28;20025;-73
2023/03/13 01:33:49;;;;;;;42.50;40.90;;;12.70;93.10;;;;;;5029019;28;20030;-73
2023/03/13 01:36:16;;;;;;;43.35;41.75;;;12.70;93.20;;;;;;5030370;28;20029;-73
2023/03/13 01:38:42;;;;;;;38.65;37.25;;;12.70;93.20;;;;;;5030421;28;20030;-73
2023/03/13 01:41:10;;;;;;;36.53;35.13;;;12.70;93.20;;;;;;5030343;28;20041;-73
2023/03/13 01:43:37;;;;;;;33.30;32.05;;;12.70;93.30;;;;;;5028872;28;20458;-73
2023/03/13 01:46:19;;;;;;;36.03;34.72;;;12.80;93.30;;;;;;5012417;28;20034;-73
2023/03/13 01:49:19;;;;;;;34.90;33.60;;;12.80;93.30;;;;;;5028875;28;20044;-73
2023/03/13 01:51:49;;;;;;;30.30;29.15;;;12.80;93.20;;;;;;5030456;28;20091;-73
2023/03/13 01:54:18;;;;;;;33.22;31.95;;;12.70;93.30;;;;;;5030040;28;20021;-73
2023/03/13 01:56:57;;;;;;;32.65;31.45;;;12.80;93.30;;;;;;5029813;28;20029;-73
2023/03/13 01:59:31;;;;;;;34.40;33.10;;;12.80;93.30;;;;;;5029995;28;20076;-73
2023/03/13 02:01:59;;;;;;;30.73;29.52;;;12.80;93.30;;;;;;5029748;28;20533;-73
2023/03/13 02:04:29;;;;;;;28.77;27.67;;;12.80;93.30;;;;;;5029875;28;20022;-73
2023/03/13 02:07:01;;;;;;;28.45;27.35;;;12.90;93.30;;;;;;5029727;28;20022;-74
2023/03/13 02:09:30;;;;;;;27.63;26.55;;;12.90;93.30;;;;;;5030055;28;20104;-73
2023/03/13 02:12:04;;;;;;;28.45;27.35;;;12.90;93.20;;;;;;5029743;28;20053;-73
2023/03/13 02:14:33;;;;;;;30.17;29.05;;;12.90;93.20;;;;;;5029657;28;20032;-73
2023/03/13 02:17:00;;;;;;;29.30;28.20;;;12.90;93.20;;;;;;5029518;28;20029;-73
2023/03/13 02:19:45;;;;;;;25.10;24.10;;;12.80;93.20;;;;;;5028316;28;20437;-73
2023/03/13 02:22:10;;;;;;;21.50;20.60;;;12.70;93.20;;;;;;5029633;28;20025;-73
2023/03/13 02:25:08;;;;;;;22.95;22.05;;;12.70;93.30;;;;;;5028672;28;20033;-73
2023/03/13 02:27:34;;;;;;;20.40;19.60;;;12.60;93.30;;;;;;5029421;28;20025;-73
2023/03/13 02:30:00;;;;;;;18.58;17.77;;;12.60;93.30;;;;;;5028119;28;20385;-74
2023/03/13 02:32:27;;;;;;;;;;;12.60;93.40;;;;;;5029898;28;20040;-73
2023/03/13 02:34:57;;;;;;;14.50;13.90;;;12.60;93.40;;;;;;5029297;28;19913;-73
2023/03/13 02:37:25;;;;;;;12.50;11.90;;;12.60;93.40;;;;;;5029222;28;20116;-73
2023/03/13 02:39:52;;;;;;;9.13;8.73;;;12.70;93.40;;;;;;5029215;28;20026;-73
2023/03/13 02:42:20;;;;;;;9.95;9.45;;;12.70;93.30;;;;;;5011438;28;20424;-73
2023/03/13 02:44:47;;;;;;;10.60;10.10;;;12.70;93.30;;;;;;5029577;28;20026;-74
2023/03/13 02:47:22;;;;;;;;;;;12.70;93.30;;;;;;5029621;28;20037;-73
2023/03/13 02:49:49;;;;;;;11.07;10.57;;;12.70;93.30;;;;;;5029133;28;19905;-73
2023/03/13 02:52:31;;;;;;;9.55;9.05;;;12.70;93.30;;;;;;5028975;28;20021;-72
2023/03/13 02:55:03;;;;;;;8.95;8.55;;;12.70;93.30;;;;;;5028838;28;20065;-73
2023/03/13 02:57:30;;;;;;;9.88;9.38;;;12.60;93.30;;;;;;5028701;28;20033;-73
2023/03/13 02:59:56;;;;;;;10.13;9.63;;;12.60;93.30;;;;;;5028809;28;20112;-73
2023/03/13 03:02:22;;;;;;;7.13;6.72;;;12.60;93.30;;;;;;5028680;28;20053;-73
2023/03/13 03:04:48;;;;;;;7.07;6.68;;;12.60;93.40;;;;;;5028720;28;20033;-73
2023/03/13 03:07:13;;;;;;;7.75;7.35;;;12.60;93.40;;;;;;5028730;28;20047;-73
2023/03/13 03:09:39;;;;;;;7.00;6.60;;;12.60;93.40;;;;;;5028640;28;20032;-73
2023/03/13 03:12:05;;;;;;;5.70;5.40;;;12.60;93.40;;;;;;5028848;28;20423;-73
2023/03/13 03:14:31;;;;;;;6.60;6.20;;;12.70;93.40;;;;;;5028574;28;20461;-73
2023/03/13 03:16:57;;;;;;;6.35;5.97;;;12.70;93.40;;;;;;5028427;28;20052;-73
2023/03/13 03:19:22;;;;;;;6.57;6.18;;;12.70;93.30;;;;;;5028494;28;20434;-73
2023/03/13 03:21:48;;;;;;;7.28;5.40;;;12.70;93.30;;;;;;5027057;28;20072;-73
2023/03/13 03:24:14;;;;;;;5.00;4.70;;;12.60;93.30;;;;;;5028281;28;20466;-73
2023/03/13 03:26:40;;;;;;;5.50;5.20;;;12.60;93.30;;;;;;5028348;28;20064;-73
2023/03/13 03:29:07;;;;;;;6.65;6.25;;;12.60;93.40;;;;;;5028331;28;20060;-73
2023/03/13 03:31:33;;;;;;;8.25;7.85;;;12.70;93.40;;;;;;5028387;28;20025;-73
2023/03/13 03:33:59;;;;;;;9.68;9.18;;;12.70;93.30;;;;;;5028188;28;20036;-73
2023/03/13 03:36:25;;;;;;;9.32;8.88;;;12.70;93.30;;;;;;5028160;28;20389;-73
2023/03/13 03:38:51;;;;;;;13.15;12.55;;;12.70;93.30;;;;;;5028039;28;20280;-73
2023/03/13 03:41:18;;;;;;;21.58;20.67;;;12.70;93.30;;;;;;5026749;28;20363;-73
2023/03/13 03:43:44;;;;;;;17.05;16.35;;;12.60;93.20;;;;;;5028138;28;20063;-73
2023/03/13 03:46:10;;;;;;;14.98;14.38;;;12.60;93.20;;;;;;5026642;28;20028;-73
2023/03/13 03:48:36;;;;;;;14.30;13.70;;;12.50;93.20;;;;;;5027922;28;20032;-73
2023/03/13 03:51:02;;;;;;;15.68;14.98;;;12.50;93.20;;;;;;5027909;28;20117;-73
2023/03/13 03:53:28;;;;;;;10.00;9.50;;;12.40;93.20;;;;;;5027714;28;20033;-73
2023/03/13 03:55:54;;;;;;;8.70;8.30;;;12.40;93.20;;;;;;5009991;28;20036;-73
2023/03/13 03:58:20;;;;;;;8.88;8.48;;;12.30;93.20;;;;;;5027748;28;20033;-73
2023/03/13 04:00:47;;;;;;;8.13;7.72;;;12.20;93.10;;;;;;5026328;28;20107;-73
2023/03/13 04:03:13;;;;;;;19.75;18.95;;;12.20;93.10;;;;;;5027639;28;20068;-73
2023/03/13 04:05:39;;;;;;;23.40;22.50;;;12.10;93.10;;;;;;5027734;28;20520;-73
2023/03/13 04:08:07;;;;;;;33.67;32.38;;;12.00;93.00;;;;;;5026289;28;20064;-73
2023/03/13 04:10:32;;;;;;;16.77;16.08;;;11.90;93.10;;;;;;5027797;28;20403;-73
2023/03/13 04:12:58;;;;;;;8.95;8.55;;;11.80;93.10;;;;;;5027807;28;20116;-73
2023/03/13 04:15:24;;;;;;;6.68;6.28;;;11.70;93.10;;;;;;5027427;28;20045;-73
2023/03/13 04:17:49;;;;;;;4.10;3.80;;;11.60;93.10;;;;;;5027452;28;20424;-73
2023/03/13 04:20:15;;;;;;;3.42;3.20;;;11.60;93.10;;;;;;4993584;28;20041;-73
2023/03/13 04:22:42;;;;;;;1.80;1.70;;;11.60;93.10;;;;;;5027360;28;20029;-73
2023/03/13 04:25:08;;;;;;;1.50;1.40;;;11.50;93.10;;;;;;5027455;28;20129;-73
2023/03/13 04:27:34;;;;;;;1.70;1.60;;;11.50;93.10;;;;;;5027328;28;20043;-73
2023/03/13 04:30:00;;;;;;;1.30;1.20;;;11.50;93.10;;;;;;5026173;28;20030;-73
2023/03/13 04:32:26;;;;;;;1.30;1.20;;;11.50;93.10;;;;;;5026179;28;20065;-73
2023/03/13 04:34:51;;;;;;;1.30;1.20;;;11.50;93.10;;;;;;5027381;28;20029;-73
2023/03/13 04:37:18;;;;;;;1.30;1.20;;;11.50;93.10;;;;;;5027336;28;20038;-73
2023/03/13 04:39:43;;;;;;;1.35;1.25;;;11.50;93.10;;;;;;5027359;28;20028;-73
2023/03/13 04:42:10;;;;;;;1.05;1.05;;;11.50;93.10;;;;;;5027360;28;20120;-73
2023/03/13 04:44:36;;;;;;;1.00;1.00;;;11.50;93.10;;;;;;5027150;28;20033;-73
2023/03/13 04:47:03;;;;;;;1.10;1.10;;;11.50;93.10;;;;;;5027687;28;20121;-73
2023/03/13 04:49:28;;;;;;;1.00;1.00;;;11.50;93.10;;;;;;5031259;28;20037;-73
2023/03/13 04:51:54;;;;;;;1.20;1.10;;;11.50;93.10;;;;;;5031242;28;20451;-73
2023/03/13 04:54:20;;;;;;;1.40;1.30;;;11.50;93.10;;;;;;5031163;28;20041;-73
2023/03/13 04:56:46;;;;;;;1.30;1.20;;;11.50;93.10;;;;;;5031017;28;20071;-73
2023/03/13 04:59:12;;;;;;;1.40;1.30;;;11.50;93.10;;;;;;5031221;28;20053;-73
2023/03/13 05:01:39;;;;;;;1.50;1.40;;;11.40;93.10;;;;;;5030716;28;20045;-73
2023/03/13 05:04:05;;;;;;;1.70;1.60;;;11.40;93.10;;;;;;5030895;28;20038;-73
2023/03/13 05:06:30;;;;;;;1.80;1.70;;;11.40;93.10;;;;;;5030785;28;20188;-73
2023/03/13 05:08:56;;;;;;;1.92;1.83;;;11.40;93.10;;;;;;5030859;28;20306;-73
2023/03/13 05:11:22;;;;;;;2.50;2.30;;;11.30;93.10;;;;;;5031151;28;20471;-73
2023/03/13 05:13:48;;;;;;;3.10;2.90;;;11.30;93.10;;;;;;5030835;28;20034;-73
2023/03/13 05:16:14;;;;;;;3.10;2.90;;;11.30;93.10;;;;;;5030746;28;20045;-73
2023/03/13 05:18:39;;;;;;;3.40;3.13;;;11.30;93.30;;;;;;5030777;28;20099;-73
2023/03/13 05:21:06;;;;;;;3.80;3.50;;;11.40;93.30;;;;;;5030739;28;20440;-73
2023/03/13 05:23:32;;;;;;;;;;;11.40;93.10;;;;;;5031053;28;20041;-73
2023/03/13 05:25:58;;;;;;;4.97;4.68;;;11.40;93.10;;;;;;5030594;28;20384;-73
2023/03/13 05:28:23;;;;;;;5.30;5.00;;;11.40;93.10;;;;;;5030608;28;20389;-73
2023/03/13 05:30:49;;;;;;;5.43;5.13;;;11.40;93.10;;;;;;5030551;28;20033;-73
2023/03/13 05:33:15;;;;;;;6.50;6.10;;;11.40;93.10;;;;;;5030500;28;20036;-73
2023/03/13 05:35:41;;;;;;;6.32;5.93;;;11.40;93.10;;;;;;5030331;28;20091;-73
2023/03/13 05:38:07;;;;;;;6.55;6.15;;;11.40;93.10;;;;;;5030369;28;20052;-73
2023/03/13 05:40:32;;;;;;;6.80;6.40;;;11.40;93.10;;;;;;5030358;28;20029;-73
2023/03/13 05:42:58;;;;;;;6.60;6.20;;;11.40;93.10;;;;;;5030296;28;20041;-73
2023/03/13 05:45:24;;;;;;;6.82;6.43;;;11.30;93.10;;;;;;5030180;28;20025;-73
2023/03/13 05:47:50;;;;;;;6.05;5.75;;;11.40;93.10;;;;;;5030221;28;20033;-73
2023/03/13 05:50:16;;;;;;;5.13;4.82;;;11.30;93.10;;;;;;5029951;28;20025;-73
2023/03/13 05:52:42;;;;;;;5.60;5.30;;;11.30;93.10;;;;;;5030083;28;20029;-73
2023/03/13 05:55:08;;;;;;;5.20;4.90;;;11.30;93.10;;;;;;5028922;28;20026;-73
2023/03/13 05:57:33;;;;;;;5.15;4.85;;;11.30;93.10;;;;;;5030069;28;20029;-73
2023/03/13 05:59:59;;;;;;;4.15;3.85;;;11.20;93.10;;;;;;5027216;28;20030;-73
2023/03/13 06:02:25;;;;;;;3.88;3.58;;;11.20;93.20;;;;;;5029826;28;20120;-73
2023/03/13 06:04:51;;;;;;;3.70;3.40;;;11.20;93.20;;;;;;5029741;28;20041;-73
2023/03/13 06:07:16;;;;;;;3.72;3.42;;;11.30;93.20;;;;;;5029966;28;20050;-73
2023/03/13 06:09:42;;;;;;;3.40;3.10;;;11.30;93.10;;;;;;5029822;28;20032;-74
2023/03/13 06:12:10;;;;;;;3.13;2.92;;;11.30;93.20;;;;;;5029704;28;20433;-73
2023/03/13 06:14:36;;;;;;;3.20;3.00;;;11.30;93.10;;;;;;5029729;28;20116;-73
2023/03/13 06:17:03;;;;;;;;;;;11.20;93.10;;;;;;5030032;28;20037;-74
2023/03/13 06:19:28;;;;;;;3.30;3.10;;;11.20;93.20;;;;;;5029405;28;19913;-73
2023/03/13 06:21:54;;;;;;;3.92;3.63;;;11.30;93.10;;;;;;5029572;28;20028;-73
2023/03/13 06:24:20;;;;;;;4.10;3.80;;;11.20;93.10;;;;;;5029524;28;20056;-72
2023/03/13 06:26:48;;;;;;;5.70;5.40;;;11.20;93.20;;;;;;5028027;28;20075;-73
2023/03/13 06:29:14;;;;;;;6.18;5.85;;;11.20;93.10;;;;;;5029369;28;20080;-73
2023/03/13 06:31:39;;;;;;;9.20;8.80;;;11.20;93.10;;;;;;5027800;28;20033;-73
2023/03/13 06:34:05;;;;;;;9.02;8.63;;;11.20;93.00;;;;;;5029256;28;20041;-73
2023/03/13 06:36:31;;;;;;;9.80;9.30;;;11.20;93.10;;;;;;5029148;28;20104;-73
2023/03/13 06:38:57;;;;;;;11.68;11.18;;;11.20;93.10;;;;;;5029210;28;20425;-73
2023/03/13 06:41:23;;;;;;;10.80;10.30;;;11.20;93.10;;;;;;5029479;28;20030;-73
2023/03/13 06:43:49;;;;;;;11.70;11.20;;;11.20;93.10;;;;;;5028923;28;20389;-73
2023/03/13 06:46:18;;;;;;;9.63;9.13;;;11.20;93.10;;;;;;5027827;28;20029;-74
2023/03/13 06:48:45;;;;;;;9.30;8.90;;;11.20;93.10;;;;;;5029528;28;20144;-73
2023/03/13 06:51:12;;;;;;;7.90;7.50;;;11.20;93.10;;;;;;5028847;28;20022;-73
2023/03/13 06:53:38;;;;;;;7.90;7.50;;;11.20;93.20;;;;;;5028902;28;20041;-73
2023/03/13 06:56:04;;;;;;;7.30;6.90;;;11.20;93.20;;;;;;5028627;28;20038;-73
2023/03/13 06:58:30;;;;;;;7.05;6.65;;;11.20;93.20;;;;;;5028464;28;20045;-73
2023/03/13 07:00:55;;;;;;;7.00;6.60;;;11.30;93.20;;;;;;5028480;28;20494;-73
2023/03/13 07:03:21;;;;;;;6.20;5.90;;;11.30;93.20;;;;;;5027174;28;20115;-73
2023/03/13 07:05:47;;;;;;;6.93;6.53;;;11.30;93.20;;;;;;5028315;28;20288;-73
2023/03/13 07:08:12;;;;;;;7.80;7.40;;;11.40;93.20;;;;;;5028903;28;20029;-73
2023/03/13 07:10:41;;;;;;;7.75;7.35;;;11.40;93.20;;;;;;5028303;28;20030;-73
2023/03/13 07:13:06;;;;;;;8.77;8.38;;;11.40;93.10;;;;;;5028431;28;20033;-73
2023/03/13 07:15:32;;;;;;;8.70;8.30;;;11.40;93.10;;;;;;5028213;28;20362;-73
2023/03/13 07:17:58;;;;;;;9.02;8.63;;;11.40;93.10;;;;;;5028253;28;20175;-73
2023/03/13 07:20:23;;;;;;;9.98;9.48;;;11.40;93.30;;;;;;5028432;28;20040;-73
2023/03/13 07:22:52;;;;;;;9.02;8.63;;;11.40;93.10;;;;;;5028136;28;20524;-73
2023/03/13 07:25:18;;;;;;;8.32;7.93;;;11.30;93.10;;;;;;5028199;28;20176;-73
2023/03/13 07:27:44;;;;;;;9.20;8.80;;;11.40;93.20;;;;;;5027656;28;20105;-73
2023/03/13 07:30:10;;;;;;;8.30;7.90;;;11.40;93.20;;;;;;5028011;28;20132;-73
2023/03/13 07:32:36;;;;;;;;;;;11.40;93.20;;;;;;5028489;28;20044;-73
2023/03/13 07:35:03;;;;;;;6.20;5.90;;;11.50;93.20;;;;;;5027904;28;19909;-74
2023/03/13 07:37:29;;;;;;;5.55;5.25;;;11.50;93.20;;;;;;5027730;28;20033;-73
2023/03/13 07:39:55;;;;;;;5.70;5.40;;;11.60;93.20;;;;;;5027171;28;20503;-73
2023/03/13 07:42:20;;;;;;;6.60;6.20;;;11.70;93.20;;;;;;5027774;28;20431;-74
2023/03/13 07:44:46;;;;;;;5.88;5.57;;;11.70;93.20;;;;;;5027835;28;20428;-74
2023/03/13 07:47:12;;;;;;;7.20;6.80;;;11.70;93.20;;;;;;5027607;28;20104;-73
2023/03/13 07:49:41;;;;;;;5.90;5.60;;;11.70;93.20;;;;;;5027859;28;20041;-73
2023/03/13 07:52:07;;;;;;;4.60;4.30;;;11.80;93.20;;;;;;5027849;28;20046;-73
2023/03/13 07:54:32;;;;;;;4.07;3.78;;;12.00;93.40;;;;;;5026362;28;20452;-74
2023/03/13 07:56:59;;;;;;;3.80;3.50;;;12.30;93.50;;;;;;5026396;28;20107;-73
2023/03/13 07:59:25;;;;;;;4.40;4.10;;;12.50;93.20;;;;;;5026856;28;20026;-73
2023/03/13 08:01:51;;;;;;;4.40;4.10;;;12.60;93.10;;;;;;5025875;28;20103;-73
2023/03/13 08:04:16;;;;;;;3.92;3.63;;;12.70;93.00;;;;;;5027405;28;20033;-73
2023/03/13 08:06:42;;;;;;;3.60;3.30;;;12.60;93.00;;;;;;5027436;28;20065;-73
2023/03/13 08:09:08;;;;;;;3.92;3.63;;;12.60;93.10;;;;;;5026192;28;20042;-73
2023/03/13 08:11:34;;;;;;;3.70;3.40;;;12.60;93.10;;;;;;5026021;28;20028;-73
2023/03/13 08:14:00;;;;;;;3.75;3.45;;;12.60;93.20;;;;;;5027492;28;20397;-74
2023/03/13 08:16:28;;;;;;;4.15;3.85;;;12.70;93.20;;;;;;5009458;28;20040;-73
2023/03/13 08:18:56;;;;;;;4.30;4.00;;;12.70;93.10;;;;;;5027609;28;20393;-73
2023/03/13 08:21:25;;;;;;;4.50;4.20;;;12.60;93.10;;;;;;5026918;28;20037;-73
2023/03/13 08:24:04;;;;;;;4.90;4.60;;;12.60;93.30;;;;;;5026878;28;20082;-73
2023/03/13 08:26:31;;;;;;;4.20;3.90;;;12.50;93.10;;;;;;5026858;28;20021;-73
2023/03/13 08:28:59;;;;;;;4.03;3.72;;;12.40;93.20;;;;;;5027125;28;20501;-73
2023/03/13 08:31:33;;;;;;;4.10;3.80;;;12.40;93.20;;;;;;5026867;28;20400;-73
2023/03/13 08:33:59;;;;;;;3.10;2.90;;;12.40;93.20;;;;;;5026938;28;20040;-73
2023/03/13 08:36:28;;;;;;;3.15;2.95;;;12.50;93.40;;;;;;5026789;28;20087;-74
2023/03/13 08:38:58;;;;;;;2.30;2.10;;;12.70;93.50;;;;;;5025385;28;20555;-74
2023/03/13 08:41:27;;;;;;;2.20;2.00;;;13.20;93.90;;;;;;5026351;28;20026;-74
2023/03/13 08:43:54;;;;;;;2.20;2.00;;;13.70;93.80;;;;;;5026440;28;20021;-73
2023/03/13 08:46:20;;;;;;;2.30;2.10;;;14.00;93.30;;;;;;5026674;28;20037;-72
2023/03/13 08:48:50;;;;;;;;;;;13.90;93.10;;;;;;5027235;28;20036;-73
2023/03/13 08:51:16;;;;;;;2.50;2.30;;;13.90;93.10;;;;;;5025523;28;19905;-74
2023/03/13 08:53:42;;;;;;;2.67;2.47;;;13.80;93.00;;;;;;5025301;28;20130;-74
2023/03/13 08:56:09;;;;;;;2.70;2.50;;;13.70;93.10;;;;;;5009068;28;20048;-73
2023/03/13 08:58:35;;;;;;;2.80;2.60;;;13.60;93.10;;;;;;5025621;28;20030;-73
2023/03/13 09:01:12;;;;;;;2.50;2.30;;;13.60;93.20;;;;;;5026244;28;20053;-73
2023/03/13 09:03:39;;;;;;;2.42;2.22;;;13.60;93.10;;;;;;5026479;28;20072;-74
2023/03/13 09:06:06;;;;;;;2.70;2.50;;;13.50;93.10;;;;;;5026655;28;20079;-73
2023/03/13 09:08:32;;;;;;;2.70;2.50;;;13.50;93.40;;;;;;5027007;28;20456;-73
2023/03/13 09:11:00;;;;;;;2.95;2.75;;;13.40;93.20;;;;;;5027780;28;20034;-73
2023/03/13 09:13:28;;;;;;;2.83;2.63;;;13.40;93.20;;;;;;5026183;28;20038;-72
2023/03/13 09:15:59;;;;;;;2.60;2.40;;;13.40;93.30;;;;;;5028093;28;20025;-74
2023/03/13 09:18:25;;;;;;;3.15;2.95;;;13.40;93.30;;;;;;5028070;28;20025;-74
2023/03/13 09:20:51;;;;;;;2.90;2.70;;;13.50;93.30;;;;;;5026221;28;20029;-74
2023/03/13 09:23:18;;;;;;;2.70;2.50;;;13.50;93.30;;;;;;5027069;28;20057;-73
2023/03/13 09:25:43;;;;;;;2.60;2.40;;;13.60;93.40;;;;;;5026130;28;20014;-72
2023/03/13 09:28:09;;;;;;;2.40;2.20;;;13.70;93.40;;;;;;5027190;28;20375;-72
2023/03/13 09:30:35;;;;;;;2.00;1.90;;;13.90;93.40;;;;;;5026558;28;20102;-73
2023/03/13 09:33:01;;;;;;;1.92;1.83;;;14.00;93.30;;;;;;5039999;28;20048;-73
2023/03/13 09:35:26;;;;;;;2.00;1.90;;;14.00;93.20;;;;;;5050521;28;20087;-74
2023/03/13 09:37:52;;;;;;;2.10;1.90;;;14.00;93.20;;;;;;5050804;28;20056;-74
2023/03/13 09:40:20;;;;;;;2.40;2.20;;;14.00;93.20;;;;;;5049672;28;20073;-75
2023/03/13 09:42:57;;;;;;;2.30;2.10;;;14.00;93.20;;;;;;5049912;28;20039;-74
2023/03/13 09:45:26;;;;;;;2.70;2.50;;;13.90;93.10;;;;;;5041447;28;20032;-74
2023/03/13 09:47:56;;;;;;;3.00;2.80;;;13.70;93.10;;;;;;5041458;28;20026;-75
2023/03/13 09:50:30;;;;;;;2.70;2.50;;;13.60;93.10;;;;;;5050514;28;20469;-75
2023/03/13 09:53:05;;;;;;;2.70;2.50;;;13.60;93.10;;;;;;5049739;28;20024;-73
2023/03/13 09:55:37;;;;;;;2.50;2.30;;;13.50;93.30;;;;;;5050413;28;20032;-74
2023/03/13 09:58:24;;;;;;;3.10;2.90;;;13.50;93.20;;;;;;5050762;28;20048;-73
2023/03/13 10:00:56;;;;;;;4.30;4.00;;;13.50;93.20;;;;;;5050059;28;20187;-74
2023/03/13 10:03:34;;;;;;;4.30;4.00;;;13.40;93.10;;;;;;5050496;28;20065;-75
2023/03/13 10:06:25;;;;;;;4.55;4.25;;;13.30;93.10;;;;;;5050618;28;20548;-74
2023/03/13 10:08:51;;;;;;;4.10;3.80;;;13.20;93.20;;;;;;5050258;28;20090;-75
2023/03/13 10:11:29;;;;;;;;;;;13.20;93.20;;;;;;5050838;28;20067;-76
2023/03/13 10:14:24;;;;;;;3.90;3.60;;;13.20;93.20;;;;;;5050493;28;19981;-75
2023/03/13 10:17:08;;;;;;;3.50;3.20;;;13.20;93.20;;;;;;5048838;28;20029;-77
2023/03/13 10:19:38;;;;;;;3.22;3.03;;;13.30;93.30;;;;;;5050100;28;20036;-75
2023/03/13 10:22:16;;;;;;;3.42;3.20;;;13.30;93.30;;;;;;5049560;28;20029;-76
2023/03/13 10:25:03;;;;;;;3.50;3.20;;;13.30;93.30;;;;;;5049469;28;20653;-75
2023/03/13 10:27:29;;;;;;;;;;;13.40;93.30;;;;;;5050137;28;20070;-75
2023/03/13 10:29:54;;;;;;;3.30;3.10;;;13.60;93.40;;;;;;5049875;28;20337;-76
2023/03/13 10:32:20;;;;;;;3.33;3.10;;;13.70;93.30;;;;;;5049805;28;20017;-76
2023/03/13 10:34:56;;;;;;;3.10;2.90;;;13.70;93.30;;;;;;5048609;28;20033;-75
2023/03/13 10:37:42;;;;;;;3.10;2.90;;;13.80;93.30;;;;;;5049969;28;20129;-74
2023/03/13 10:40:21;;;;;;;3.10;2.90;;;13.90;93.30;;;;;;5048505;28;20029;-75
2023/03/13 10:42:49;;;;;;;3.00;2.80;;;14.00;93.30;;;;;;5049785;28;20501;-76
2023/03/13 10:45:18;;;;;;;3.00;2.80;;;14.10;93.40;;;;;;5048826;28;20021;-75
2023/03/13 10:47:44;;;;;;;2.90;2.70;;;14.20;93.40;;;;;;5048273;28;20040;-74
2023/03/13 10:50:19;;;;;;;2.60;2.40;;;14.30;93.40;;;;;;5049660;28;20033;-74
2023/03/13 10:52:48;;;;;;;2.40;2.20;;;14.60;93.50;;;;;;5048171;28;20322;-76
2023/03/13 10:55:19;;;;;;;2.30;2.10;;;14.70;93.40;;;;;;5049367;28;20036;-74
2023/03/13 10:58:00;;;;;;;2.20;2.00;;;14.80;93.30;;;;;;5049421;28;20559;-74
2023/03/13 11:00:38;;;;;;;2.20;2.00;;;14.80;93.20;;;;;;5048942;28;20104;-74
2023/03/13 11:03:16;;;;;;;1.80;1.70;;;14.80;93.20;;;;;;5049050;28;20032;-75
2023/03/13 11:05:42;;;;;;;2.08;1.90;;;14.80;93.20;;;;;;5049028;28;20099;-75
2023/03/13 11:08:19;;;;;;;1.90;1.80;;;14.70;93.20;;;;;;5049276;28;20033;-73
2023/03/13 11:10:59;;;;;;;1.80;1.70;;;14.60;93.20;;;;;;5047819;28;20017;-73
2023/03/13 11:13:39;;;;;;;2.00;1.90;;;14.60;93.20;;;;;;5049126;28;20620;-75
2023/03/13 11:16:28;;;;;;;1.90;1.80;;;14.40;93.20;;;;;;5049080;28;20391;-75
2023/03/13 11:19:12;;;;;;;1.80;1.70;;;14.30;93.30;;;;;;5047847;28;20462;-74
2023/03/13 11:22:05;;;;;;;1.80;1.70;;;14.40;93.50;;;;;;5047868;28;20046;-73
2023/03/13 11:24:45;;;;;;;1.90;1.80;;;14.50;93.40;;;;;;5047493;28;20036;-76
2023/03/13 11:27:25;;;;;;;1.80;1.70;;;14.60;93.60;;;;;;5048921;28;20037;-75
2023/03/13 11:30:00;;;;;;;1.30;1.20;;;14.90;93.60;;;;;;5049044;28;20518;-76
2023/03/13 11:32:55;;;;;;;0.90;0.90;;;15.50;94.30;;;;;;5048950;28;20033;-74
2023/03/13 11:35:38;;;;;;;0.80;0.80;;;16.60;94.50;;;;;;5048528;28;20066;-74
2023/03/13 11:38:19;;;;;;;1.15;1.10;;;17.20;93.80;;;;;;5048974;28;20029;-77
2023/03/13 11:40:55;;;;;;;1.10;1.10;;;17.30;93.80;;;;;;5048156;28;20029;-75
2023/03/13 11:43:23;;;;;;;;;;;17.90;94.20;;;;;;5048766;28;20025;-72
2023/03/13 11:45:55;;;;;;;0.63;0.63;;;18.60;94.10;;;;;;5047040;28;19905;-76
2023/03/13 11:48:39;;;;;;;0.40;0.40;;;18.80;93.70;;;;;;5047808;28;20017;-77
2023/03/13 11:51:41;;;;;;;0.55;0.55;;;18.60;93.10;;;;;;5049608;28;20029;-75
2023/03/13 11:54:25;;;;;;;1.00;1.00;;;17.90;92.80;;;;;;5048022;28;20512;-73
2023/03/13 11:57:11;;;;;;;1.40;1.30;;;17.30;92.90;;;;;;5047523;28;20464;-77
2023/03/13 12:00:01;;;;;;;1.67;1.58;;;16.70;93.10;;;;;;5047954;28;20034;-75
2023/03/13 12:02:35;;;;;;;1.35;1.25;;;16.50;93.30;;;;;;5048305;28;20810;-72
2023/03/13 12:05:14;;;;;;;1.10;1.10;;;16.50;93.70;;;;;;5048047;28;20021;-72
2023/03/13 12:07:46;;;;;;;0.80;0.80;;;16.70;93.90;;;;;;5047921;28;20023;-74
2023/03/13 12:10:17;;;;;;;0.70;0.70;;;17.20;94.20;;;;;;5047656;28;20532;-72
2023/03/13 12:12:58;;;;;;;0.80;0.80;;;17.40;93.90;;;;;;5047902;28;20032;-74
2023/03/13 12:15:44;;;;;;;0.70;0.70;;;17.40;93.50;;;;;;5048097;28;20458;-74
2023/03/13 12:18:21;;;;;;;0.70;0.70;;;17.10;93.20;;;;;;5048070;28;20392;-75
2023/03/13 12:20:59;;;;;;;0.90;0.90;;;16.90;93.30;;;;;;5048048;28;20083;-73
2023/03/13 12:23:46;;;;;;;0.90;0.90;;;16.70;93.20;;;;;;5047872;28;20020;-75
2023/03/13 12:26:17;;;;;;;1.10;1.10;;;16.40;93.30;;;;;;5046914;28;20029;-74
2023/03/13 12:29:20;;;;;;;1.30;1.20;;;16.30;93.30;;;;;;5047189;28;20096;-75
2023/03/13 12:32:24;;;;;;;0.80;0.80;;;16.30;93.70;;;;;;5047589;28;20457;-73
2023/03/13 12:35:23;;;;;;;0.90;0.90;;;16.80;93.80;;;;;;5024836;28;20049;-74
2023/03/13 12:38:18;;;;;;;0.70;0.70;;;16.90;93.60;;;;;;5025325;28;20038;-74
2023/03/13 12:41:25;;;;;;;1.00;0.90;;;17.00;93.70;;;;;;5044950;28;20131;-71
2023/03/13 12:43:53;;;;;;;0.80;0.80;;;17.20;93.70;;;;;;5046605;28;20041;-69
2023/03/13 12:46:36;;;;;;;0.70;0.70;;;17.50;94.00;;;;;;5047901;28;20380;-75
2023/03/13 12:49:13;;;;;;;0.40;0.40;;;17.80;93.80;;;;;;5047458;28;20429;-76
2023/03/13 12:51:57;;;;;;;0.40;0.40;;;18.00;93.80;;;;;;5047743;28;20021;-73
2023/03/13 12:55:01;;;;;;;0.50;0.50;;;18.10;93.60;;;;;;5047461;28;20032;-72
2023/03/13 12:57:59;;;;;;;0.32;0.32;;;18.10;93.90;;;;;;5039700;28;20496;-74
2023/03/13 13:00:30;;;;;;;0.30;0.30;;;18.60;93.90;;;;;;5035484;28;20041;-76